sensor_id;sensor_type;location;lat;lon;timestamp;pressure;altitude;pressure_sealevel;temperature;humidity
9277;BME280;4676;42.678;23.244;2024-02-16T00:00:07;94610.56;;;2.45;nan
9277;BME280;4676;42.678;23.244;2024-02-16T00:02:36;94623.06;;;2.19;nan
9277;BME280;4676;42.678;23.244;2024-02-16T00:05:03;94620.56;;;2.13;nan
9277;BME280;4676;42.678;23.244;2024-02-16T00:07:31;94623.03;;;1.98;nan
9277;BME280;4676;42.678;23.244;2024-02-16T00:09:58;94632.22;;;1.90;nan
9277;BME280;4676;42.678;23.244;2024-02-16T00:12:25;94607.19;;;1.67;nan
9277;BME280;4676;42.678;23.244;2024-02-16T00:14:53;94635.53;;;1.75;nan
9277;BME280;4676;42.678;23.244;2024-02-16T00:17:20;94625.53;;;1.81;nan
9277;BME280;4676;42.678;23.244;2024-02-16T00:19:47;94625.53;;;1.80;nan
9277;BME280;4676;42.678;23.244;2024-02-16T00:22:14;94629.72;;;1.88;nan
9277;BME280;4676;42.678;23.244;2024-02-16T00:24:40;94628.03;;;1.81;nan
9277;BME280;4676;42.678;23.244;2024-02-16T00:27:07;94628.06;;;1.86;nan
9277;BME280;4676;42.678;23.244;2024-02-16T00:29:34;94632.19;;;1.87;nan
9277;BME280;4676;42.678;23.244;2024-02-16T00:32:02;94628.88;;;1.89;nan
9277;BME280;4676;42.678;23.244;2024-02-16T00:34:29;94633.03;;;1.72;nan
9277;BME280;4676;42.678;23.244;2024-02-16T00:36:55;94637.13;;;1.57;nan
9277;BME280;4676;42.678;23.244;2024-02-16T00:39:22;94633.78;;;1.53;nan
9277;BME280;4676;42.678;23.244;2024-02-16T00:41:50;94638.75;;;1.45;nan
9277;BME280;4676;42.678;23.244;2024-02-16T00:44:17;94637.13;;;1.55;nan
9277;BME280;4676;42.678;23.244;2024-02-16T00:46:43;94632.16;;;1.61;nan
9277;BME280;4676;42.678;23.244;2024-02-16T00:49:12;94637.97;;;1.60;nan
9277;BME280;4676;42.678;23.244;2024-02-16T00:51:39;94632.13;;;1.50;nan
9277;BME280;4676;42.678;23.244;2024-02-16T00:54:05;94623.75;;;1.41;nan
9277;BME280;4676;42.678;23.244;2024-02-16T00:56:32;94631.22;;;1.29;nan
9277;BME280;4676;42.678;23.244;2024-02-16T00:58:59;94595.38;;;1.13;nan
9277;BME280;4676;42.678;23.244;2024-02-16T01:01:26;94625.44;;;1.43;nan
9277;BME280;4676;42.678;23.244;2024-02-16T01:03:52;94630.47;;;1.49;nan
9277;BME280;4676;42.678;23.244;2024-02-16T01:06:21;94631.28;;;1.44;nan
9277;BME280;4676;42.678;23.244;2024-02-16T01:08:47;94618.75;;;1.38;nan
9277;BME280;4676;42.678;23.244;2024-02-16T01:11:14;94606.28;;;1.35;nan
9277;BME280;4676;42.678;23.244;2024-02-16T01:13:41;94627.13;;;1.47;nan
9277;BME280;4676;42.678;23.244;2024-02-16T01:16:08;94628.78;;;1.45;nan
9277;BME280;4676;42.678;23.244;2024-02-16T01:18:35;94617.97;;;1.52;nan
9277;BME280;4676;42.678;23.244;2024-02-16T01:21:02;94627.97;;;1.54;nan
9277;BME280;4676;42.678;23.244;2024-02-16T01:23:31;94627.09;;;1.40;nan
9277;BME280;4676;42.678;23.244;2024-02-16T01:25:57;94621.25;;;1.38;nan
9277;BME280;4676;42.678;23.244;2024-02-16T01:28:24;94622.94;;;1.36;nan
9277;BME280;4676;42.678;23.244;2024-02-16T01:30:51;94619.59;;;1.41;nan
9277;BME280;4676;42.678;23.244;2024-02-16T01:33:19;94620.44;;;1.48;nan
9277;BME280;4676;42.678;23.244;2024-02-16T01:35:46;94614.63;;;1.49;nan
9277;BME280;4676;42.678;23.244;2024-02-16T01:38:13;94525.47;;;0.98;nan
9277;BME280;4676;42.678;23.244;2024-02-16T01:40:41;94617.09;;;1.44;nan
9277;BME280;4676;42.678;23.244;2024-02-16T01:43:08;94617.91;;;1.37;nan
9277;BME280;4676;42.678;23.244;2024-02-16T01:45:34;94613.75;;;1.35;nan
9277;BME280;4676;42.678;23.244;2024-02-16T01:48:01;94611.28;;;1.33;nan
9277;BME280;4676;42.678;23.244;2024-02-16T01:50:28;94606.25;;;1.29;nan
9277;BME280;4676;42.678;23.244;2024-02-16T01:52:55;94604.59;;;1.31;nan
9277;BME280;4676;42.678;23.244;2024-02-16T01:55:23;94604.59;;;1.28;nan
9277;BME280;4676;42.678;23.244;2024-02-16T01:57:53;94597.94;;;1.25;nan
9277;BME280;4676;42.678;23.244;2024-02-16T02:00:21;94597.94;;;1.28;nan
9277;BME280;4676;42.678;23.244;2024-02-16T02:02:48;94601.31;;;1.51;nan
9277;BME280;4676;42.678;23.244;2024-02-16T02:05:15;94603.81;;;1.51;nan
9277;BME280;4676;42.678;23.244;2024-02-16T02:07:42;94606.31;;;1.47;nan
9277;BME280;4676;42.678;23.244;2024-02-16T02:10:09;94602.13;;;1.43;nan
9277;BME280;4676;42.678;23.244;2024-02-16T02:12:38;94608.00;;;1.51;nan
9277;BME280;4676;42.678;23.244;2024-02-16T02:15:08;94611.28;;;1.45;nan
9277;BME280;4676;42.678;23.244;2024-02-16T02:17:35;94557.13;;;1.20;nan
9277;BME280;4676;42.678;23.244;2024-02-16T02:20:02;94573.78;;;1.24;nan
9277;BME280;4676;42.678;23.244;2024-02-16T02:22:30;94614.63;;;1.43;nan
9277;BME280;4676;42.678;23.244;2024-02-16T02:24:57;94612.97;;;1.48;nan
9277;BME280;4676;42.678;23.244;2024-02-16T02:27:24;94612.16;;;1.47;nan
9277;BME280;4676;42.678;23.244;2024-02-16T02:29:51;94582.09;;;1.25;nan
9277;BME280;4676;42.678;23.244;2024-02-16T02:32:17;94594.63;;;1.32;nan
9277;BME280;4676;42.678;23.244;2024-02-16T02:34:44;94611.28;;;1.33;nan
9277;BME280;4676;42.678;23.244;2024-02-16T02:37:11;94609.59;;;1.26;nan
9277;BME280;4676;42.678;23.244;2024-02-16T02:39:40;94604.53;;;1.13;nan
9277;BME280;4676;42.678;23.244;2024-02-16T02:42:07;94608.69;;;1.20;nan
9277;BME280;4676;42.678;23.244;2024-02-16T02:44:34;94607.88;;;1.18;nan
9277;BME280;4676;42.678;23.244;2024-02-16T02:47:01;94609.56;;;1.19;nan
9277;BME280;4676;42.678;23.244;2024-02-16T02:49:28;94607.06;;;1.22;nan
9277;BME280;4676;42.678;23.244;2024-02-16T02:51:54;94610.38;;;1.24;nan
9277;BME280;4676;42.678;23.244;2024-02-16T02:54:21;94604.59;;;1.28;nan
9277;BME280;4676;42.678;23.244;2024-02-16T02:56:50;94596.22;;;1.15;nan
9277;BME280;4676;42.678;23.244;2024-02-16T02:59:16;94602.09;;;1.26;nan
9277;BME280;4676;42.678;23.244;2024-02-16T03:01:43;94603.72;;;1.20;nan
9277;BME280;4676;42.678;23.244;2024-02-16T03:04:11;94602.88;;;1.15;nan
9277;BME280;4676;42.678;23.244;2024-02-16T03:06:38;94605.34;;;1.10;nan
9277;BME280;4676;42.678;23.244;2024-02-16T03:09:04;94533.63;;;0.64;nan
9277;BME280;4676;42.678;23.244;2024-02-16T03:11:32;94606.16;;;1.03;nan
9277;BME280;4676;42.678;23.244;2024-02-16T03:14:00;94613.63;;;1.03;nan
9277;BME280;4676;42.678;23.244;2024-02-16T03:16:26;94611.09;;;0.95;nan
9277;BME280;4676;42.678;23.244;2024-02-16T03:18:55;94610.31;;;1.01;nan
9277;BME280;4676;42.678;23.244;2024-02-16T03:21:22;94612.84;;;1.09;nan
9277;BME280;4676;42.678;23.244;2024-02-16T03:23:48;94611.22;;;1.27;nan
9277;BME280;4676;42.678;23.244;2024-02-16T03:26:15;94598.66;;;1.03;nan
9277;BME280;4676;42.678;23.244;2024-02-16T03:28:43;94610.31;;;1.04;nan
9277;BME280;4676;42.678;23.244;2024-02-16T03:31:26;94606.22;;;1.12;nan
9277;BME280;4676;42.678;23.244;2024-02-16T03:33:54;94605.41;;;1.24;nan
9277;BME280;4676;42.678;23.244;2024-02-16T03:36:21;94612.03;;;1.20;nan
9277;BME280;4676;42.678;23.244;2024-02-16T03:38:48;94608.69;;;1.20;nan
9277;BME280;4676;42.678;23.244;2024-02-16T03:41:18;94612.06;;;1.22;nan
9277;BME280;4676;42.678;23.244;2024-02-16T03:43:45;94613.69;;;1.14;nan
9277;BME280;4676;42.678;23.244;2024-02-16T03:46:12;94614.53;;;1.16;nan
9277;BME280;4676;42.678;23.244;2024-02-16T03:48:40;94567.00;;;0.84;nan
9277;BME280;4676;42.678;23.244;2024-02-16T03:51:07;94610.34;;;1.09;nan
9277;BME280;4676;42.678;23.244;2024-02-16T03:53:33;94607.81;;;1.04;nan
9277;BME280;4676;42.678;23.244;2024-02-16T03:56:00;94616.09;;;0.92;nan
9277;BME280;4676;42.678;23.244;2024-02-16T03:58:27;94606.06;;;0.80;nan
9277;BME280;4676;42.678;23.244;2024-02-16T04:00:53;94606.06;;;0.82;nan
9277;BME280;4676;42.678;23.244;2024-02-16T04:03:20;94606.06;;;0.77;nan
9277;BME280;4676;42.678;23.244;2024-02-16T04:05:49;94597.75;;;0.83;nan
9277;BME280;4676;42.678;23.244;2024-02-16T04:08:15;94601.03;;;0.76;nan
9277;BME280;4676;42.678;23.244;2024-02-16T04:10:42;94600.19;;;0.69;nan
9277;BME280;4676;42.678;23.244;2024-02-16T04:13:09;94534.38;;;0.41;nan
9277;BME280;4676;42.678;23.244;2024-02-16T04:15:35;94601.00;;;0.67;nan
9277;BME280;4676;42.678;23.244;2024-02-16T04:18:04;94601.81;;;0.63;nan
9277;BME280;4676;42.678;23.244;2024-02-16T04:20:32;94566.78;;;0.44;nan
9277;BME280;4676;42.678;23.244;2024-02-16T04:23:00;94596.81;;;0.67;nan
9277;BME280;4676;42.678;23.244;2024-02-16T04:25:27;94601.03;;;0.70;nan
9277;BME280;4676;42.678;23.244;2024-02-16T04:27:53;94599.28;;;0.61;nan
9277;BME280;4676;42.678;23.244;2024-02-16T04:30:20;94602.66;;;0.63;nan
9277;BME280;4676;42.678;23.244;2024-02-16T04:32:47;94597.72;;;0.81;nan
9277;BME280;4676;42.678;23.244;2024-02-16T04:35:14;94588.59;;;0.80;nan
9277;BME280;4676;42.678;23.244;2024-02-16T04:37:40;94603.66;;;1.02;nan
9277;BME280;4676;42.678;23.244;2024-02-16T04:40:09;94605.34;;;1.04;nan
9277;BME280;4676;42.678;23.244;2024-02-16T04:42:37;94604.47;;;0.97;nan
9277;BME280;4676;42.678;23.244;2024-02-16T04:45:06;94601.13;;;0.88;nan
9277;BME280;4676;42.678;23.244;2024-02-16T04:47:33;94609.38;;;0.76;nan
9277;BME280;4676;42.678;23.244;2024-02-16T04:50:00;94606.06;;;0.82;nan
9277;BME280;4676;42.678;23.244;2024-02-16T04:52:27;94608.53;;;0.79;nan
9277;BME280;4676;42.678;23.244;2024-02-16T04:54:54;94608.53;;;0.76;nan
9277;BME280;4676;42.678;23.244;2024-02-16T04:57:22;94607.63;;;0.65;nan
9277;BME280;4676;42.678;23.244;2024-02-16T04:59:48;94615.94;;;0.64;nan
9277;BME280;4676;42.678;23.244;2024-02-16T05:02:15;94583.38;;;0.38;nan
9277;BME280;4676;42.678;23.244;2024-02-16T05:04:42;94615.00;;;0.46;nan
9277;BME280;4676;42.678;23.244;2024-02-16T05:07:08;94622.53;;;0.56;nan
9277;BME280;4676;42.678;23.244;2024-02-16T05:09:35;94626.66;;;0.54;nan
9277;BME280;4676;42.678;23.244;2024-02-16T05:12:02;94625.84;;;0.55;nan
9277;BME280;4676;42.678;23.244;2024-02-16T05:14:30;94629.16;;;0.54;nan
9277;BME280;4676;42.678;23.244;2024-02-16T05:16:57;94627.50;;;0.51;nan
9277;BME280;4676;42.678;23.244;2024-02-16T05:19:24;94640.00;;;0.60;nan
9277;BME280;4676;42.678;23.244;2024-02-16T05:21:50;94632.56;;;0.63;nan
9277;BME280;4676;42.678;23.244;2024-02-16T05:24:17;94646.75;;;0.78;nan
9277;BME280;4676;42.678;23.244;2024-02-16T05:26:44;94630.97;;;0.76;nan
9277;BME280;4676;42.678;23.244;2024-02-16T05:29:10;94645.19;;;0.87;nan
9277;BME280;4676;42.678;23.244;2024-02-16T05:31:38;94642.69;;;0.84;nan
9277;BME280;4676;42.678;23.244;2024-02-16T05:34:05;94644.31;;;0.85;nan
9277;BME280;4676;42.678;23.244;2024-02-16T05:36:32;94650.97;;;0.83;nan
9277;BME280;4676;42.678;23.244;2024-02-16T05:39:01;94659.28;;;0.82;nan
9277;BME280;4676;42.678;23.244;2024-02-16T05:41:45;94659.28;;;0.81;nan
9277;BME280;4676;42.678;23.244;2024-02-16T05:44:12;94649.28;;;0.79;nan
9277;BME280;4676;42.678;23.244;2024-02-16T05:46:41;94661.78;;;0.84;nan
9277;BME280;4676;42.678;23.244;2024-02-16T05:49:07;94654.31;;;0.88;nan
9277;BME280;4676;42.678;23.244;2024-02-16T05:51:36;94650.88;;;0.71;nan
9277;BME280;4676;42.678;23.244;2024-02-16T05:54:04;94660.13;;;0.86;nan
9277;BME280;4676;42.678;23.244;2024-02-16T05:56:33;94654.28;;;0.82;nan
9277;BME280;4676;42.678;23.244;2024-02-16T05:59:00;94623.47;;;0.70;nan
9277;BME280;4676;42.678;23.244;2024-02-16T06:01:26;94663.47;;;0.86;nan
9277;BME280;4676;42.678;23.244;2024-02-16T06:03:55;94404.09;;;-0.74;nan
9277;BME280;4676;42.678;23.244;2024-02-16T06:06:22;94662.69;;;0.99;nan
9277;BME280;4676;42.678;23.244;2024-02-16T06:08:48;94650.22;;;0.98;nan
9277;BME280;4676;42.678;23.244;2024-02-16T06:11:15;94631.03;;;0.89;nan
9277;BME280;4676;42.678;23.244;2024-02-16T06:13:42;94665.28;;;1.18;nan
9277;BME280;4676;42.678;23.244;2024-02-16T06:16:09;94656.97;;;1.20;nan
9277;BME280;4676;42.678;23.244;2024-02-16T06:18:36;94663.69;;;1.35;nan
9277;BME280;4676;42.678;23.244;2024-02-16T06:21:04;94593.66;;;0.94;nan
9277;BME280;4676;42.678;23.244;2024-02-16T06:23:31;94666.22;;;1.45;nan
9277;BME280;4676;42.678;23.244;2024-02-16T06:25:58;94668.75;;;1.53;nan
9277;BME280;4676;42.678;23.244;2024-02-16T06:28:24;94667.16;;;1.76;nan
9277;BME280;4676;42.678;23.244;2024-02-16T06:30:51;94665.53;;;1.86;nan
9277;BME280;4676;42.678;23.244;2024-02-16T06:33:18;94671.38;;;1.86;nan
9277;BME280;4676;42.678;23.244;2024-02-16T06:35:45;94665.56;;;1.93;nan
9277;BME280;4676;42.678;23.244;2024-02-16T06:38:14;94675.56;;;2.06;nan
9277;BME280;4676;42.678;23.244;2024-02-16T06:40:41;94669.72;;;2.32;nan
9277;BME280;4676;42.678;23.244;2024-02-16T06:43:08;94666.41;;;2.59;nan
9277;BME280;4676;42.678;23.244;2024-02-16T06:45:34;94670.56;;;2.72;nan
9277;BME280;4676;42.678;23.244;2024-02-16T06:48:02;94668.88;;;2.86;nan
9277;BME280;4676;42.678;23.244;2024-02-16T06:50:28;94664.69;;;3.02;nan
9277;BME280;4676;42.678;23.244;2024-02-16T06:52:55;94671.34;;;3.03;nan
9277;BME280;4676;42.678;23.244;2024-02-16T06:55:23;94668.03;;;3.06;nan
9277;BME280;4676;42.678;23.244;2024-02-16T06:57:50;94638.00;;;2.95;nan
9277;BME280;4676;42.678;23.244;2024-02-16T07:00:17;94673.00;;;3.19;nan
9277;BME280;4676;42.678;23.244;2024-02-16T07:02:45;94672.94;;;3.33;nan
9277;BME280;4676;42.678;23.244;2024-02-16T07:05:12;94672.84;;;3.60;nan
9277;BME280;4676;42.678;23.244;2024-02-16T07:07:39;94670.38;;;3.51;nan
9277;BME280;4676;42.678;23.244;2024-02-16T07:10:07;94679.50;;;3.66;nan
9277;BME280;4676;42.678;23.244;2024-02-16T07:12:40;94677.81;;;3.69;nan
9277;BME280;4676;42.678;23.244;2024-02-16T07:15:07;94676.16;;;3.61;nan
9277;BME280;4676;42.678;23.244;2024-02-16T07:17:35;94677.84;;;3.62;nan
9277;BME280;4676;42.678;23.244;2024-02-16T07:20:02;94676.16;;;3.65;nan
9277;BME280;4676;42.678;23.244;2024-02-16T07:22:30;94666.09;;;3.70;nan
9277;BME280;4676;42.678;23.244;2024-02-16T07:24:56;94670.16;;;3.96;nan
9277;BME280;4676;42.678;23.244;2024-02-16T07:27:25;94595.97;;;3.65;nan
9277;BME280;4676;42.678;23.244;2024-02-16T07:29:53;94676.69;;;4.16;nan
9277;BME280;4676;42.678;23.244;2024-02-16T07:32:20;94669.13;;;4.23;nan
9277;BME280;4676;42.678;23.244;2024-02-16T07:34:47;94674.09;;;4.31;nan
9277;BME280;4676;42.678;23.244;2024-02-16T07:37:14;94674.88;;;4.42;nan
9277;BME280;4676;42.678;23.244;2024-02-16T07:39:41;94675.63;;;4.51;nan
9277;BME280;4676;42.678;23.244;2024-02-16T07:42:08;94673.03;;;4.64;nan
9277;BME280;4676;42.678;23.244;2024-02-16T07:44:35;94676.22;;;4.79;nan
9277;BME280;4676;42.678;23.244;2024-02-16T07:47:04;94672.13;;;4.71;nan
9277;BME280;4676;42.678;23.244;2024-02-16T07:49:30;94672.88;;;4.80;nan
9277;BME280;4676;42.678;23.244;2024-02-16T07:51:57;94672.03;;;4.81;nan
9277;BME280;4676;42.678;23.244;2024-02-16T07:54:24;94685.38;;;4.88;nan
9277;BME280;4676;42.678;23.244;2024-02-16T07:56:50;94679.50;;;4.89;nan
9277;BME280;4676;42.678;23.244;2024-02-16T07:59:17;94686.16;;;4.93;nan
9277;BME280;4676;42.678;23.244;2024-02-16T08:01:44;94676.09;;;4.93;nan
9277;BME280;4676;42.678;23.244;2024-02-16T08:04:12;94681.88;;;5.01;nan
9277;BME280;4676;42.678;23.244;2024-02-16T08:06:39;94686.81;;;5.13;nan
9277;BME280;4676;42.678;23.244;2024-02-16T08:09:06;94685.13;;;5.12;nan
9277;BME280;4676;42.678;23.244;2024-02-16T08:11:33;94681.72;;;5.19;nan
9277;BME280;4676;42.678;23.244;2024-02-16T08:13:59;94690.81;;;5.29;nan
9277;BME280;4676;42.678;23.244;2024-02-16T08:16:27;94681.59;;;5.30;nan
9277;BME280;4676;42.678;23.244;2024-02-16T08:18:53;94685.69;;;5.40;nan
9277;BME280;4676;42.678;23.244;2024-02-16T08:21:21;94683.03;;;5.52;nan
9277;BME280;4676;42.678;23.244;2024-02-16T08:23:48;94684.03;;;5.36;nan
9277;BME280;4676;42.678;23.244;2024-02-16T08:26:15;94689.16;;;5.30;nan
9277;BME280;4676;42.678;23.244;2024-02-16T08:28:43;94694.13;;;5.31;nan
9277;BME280;4676;42.678;23.244;2024-02-16T08:31:10;94687.50;;;5.26;nan
9277;BME280;4676;42.678;23.244;2024-02-16T08:33:36;94692.47;;;5.32;nan
9277;BME280;4676;42.678;23.244;2024-02-16T08:36:07;94686.53;;;5.40;nan
9277;BME280;4676;42.678;23.244;2024-02-16T08:38:36;94685.56;;;5.49;nan
9277;BME280;4676;42.678;23.244;2024-02-16T08:41:03;94689.66;;;5.59;nan
9277;BME280;4676;42.678;23.244;2024-02-16T08:43:30;94684.59;;;5.61;nan
9277;BME280;4676;42.678;23.244;2024-02-16T08:45:56;94688.66;;;5.72;nan
9277;BME280;4676;42.678;23.244;2024-02-16T08:48:24;94686.81;;;5.85;nan
9277;BME280;4676;42.678;23.244;2024-02-16T08:50:51;94689.31;;;5.88;nan
9277;BME280;4676;42.678;23.244;2024-02-16T08:53:17;94686.66;;;6.00;nan
9277;BME280;4676;42.678;23.244;2024-02-16T08:55:45;94691.59;;;6.08;nan
9277;BME280;4676;42.678;23.244;2024-02-16T08:58:12;94701.44;;;6.24;nan
9277;BME280;4676;42.678;23.244;2024-02-16T09:00:39;94705.72;;;6.19;nan
9277;BME280;4676;42.678;23.244;2024-02-16T09:03:05;94698.84;;;6.29;nan
9277;BME280;4676;42.678;23.244;2024-02-16T09:05:34;94701.22;;;6.38;nan
9277;BME280;4676;42.678;23.244;2024-02-16T09:08:00;94697.75;;;6.46;nan
9277;BME280;4676;42.678;23.244;2024-02-16T09:10:28;94704.22;;;6.64;nan
9277;BME280;4676;42.678;23.244;2024-02-16T09:12:56;94694.72;;;6.80;nan
9277;BME280;4676;42.678;23.244;2024-02-16T09:15:23;94714.75;;;6.87;nan
9277;BME280;4676;42.678;23.244;2024-02-16T09:17:49;94696.03;;;7.00;nan
9277;BME280;4676;42.678;23.244;2024-02-16T09:20:16;94702.63;;;7.09;nan
9277;BME280;4676;42.678;23.244;2024-02-16T09:22:48;94689.97;;;7.12;nan
9277;BME280;4676;42.678;23.244;2024-02-16T09:25:15;94708.88;;;7.36;nan
9277;BME280;4676;42.678;23.244;2024-02-16T09:27:41;94683.97;;;7.19;nan
9277;BME280;4676;42.678;23.244;2024-02-16T09:30:12;94688.69;;;7.36;nan
9277;BME280;4676;42.678;23.244;2024-02-16T09:32:39;94708.59;;;7.52;nan
9277;BME280;4676;42.678;23.244;2024-02-16T09:35:07;94706.63;;;7.67;nan
9277;BME280;4676;42.678;23.244;2024-02-16T09:37:34;94704.75;;;7.76;nan
9277;BME280;4676;42.678;23.244;2024-02-16T09:40:03;94702.09;;;7.82;nan
9277;BME280;4676;42.678;23.244;2024-02-16T09:42:30;94707.78;;;7.92;nan
9277;BME280;4676;42.678;23.244;2024-02-16T09:44:59;94697.47;;;8.02;nan
9277;BME280;4676;42.678;23.244;2024-02-16T09:47:29;94700.75;;;8.09;nan
9277;BME280;4676;42.678;23.244;2024-02-16T09:49:58;94689.97;;;8.01;nan
9277;BME280;4676;42.678;23.244;2024-02-16T09:52:25;94698.03;;;8.17;nan
9277;BME280;4676;42.678;23.244;2024-02-16T09:54:51;94702.88;;;8.29;nan
9277;BME280;4676;42.678;23.244;2024-02-16T09:57:18;94696.34;;;7.77;nan
9277;BME280;4676;42.678;23.244;2024-02-16T09:59:44;94686.81;;;7.91;nan
9277;BME280;4676;42.678;23.244;2024-02-16T10:02:11;94683.16;;;8.04;nan
9277;BME280;4676;42.678;23.244;2024-02-16T10:04:45;94686.91;;;8.27;nan
9277;BME280;4676;42.678;23.244;2024-02-16T10:07:11;94682.50;;;8.36;nan
9277;BME280;4676;42.678;23.244;2024-02-16T10:09:39;94682.19;;;8.50;nan
9277;BME280;4676;42.678;23.244;2024-02-16T10:12:06;94677.00;;;8.56;nan
9277;BME280;4676;42.678;23.244;2024-02-16T10:14:33;94675.31;;;8.55;nan
9277;BME280;4676;42.678;23.244;2024-02-16T10:17:00;94634.97;;;8.15;nan
9277;BME280;4676;42.678;23.244;2024-02-16T10:19:28;94647.41;;;8.23;nan
9277;BME280;4676;42.678;23.244;2024-02-16T10:22:07;94666.41;;;8.40;nan
9277;BME280;4676;42.678;23.244;2024-02-16T10:24:34;94595.75;;;7.99;nan
9277;BME280;4676;42.678;23.244;2024-02-16T10:27:04;94637.72;;;8.43;nan
9277;BME280;4676;42.678;23.244;2024-02-16T10:29:32;94648.88;;;8.70;nan
9277;BME280;4676;42.678;23.244;2024-02-16T10:31:59;94651.69;;;8.93;nan
9277;BME280;4676;42.678;23.244;2024-02-16T10:34:29;94656.47;;;9.03;nan
9277;BME280;4676;42.678;23.244;2024-02-16T10:36:57;94653.94;;;9.03;nan
9277;BME280;4676;42.678;23.244;2024-02-16T10:39:27;94653.13;;;9.03;nan
9277;BME280;4676;42.678;23.244;2024-02-16T10:41:56;94656.75;;;8.93;nan
9277;BME280;4676;42.678;23.244;2024-02-16T10:44:25;94647.50;;;8.90;nan
9277;BME280;4676;42.678;23.244;2024-02-16T10:46:54;94649.25;;;8.90;nan
9277;BME280;4676;42.678;23.244;2024-02-16T10:49:22;94648.66;;;8.79;nan
9277;BME280;4676;42.678;23.244;2024-02-16T10:51:53;94642.03;;;8.75;nan
9277;BME280;4676;42.678;23.244;2024-02-16T10:54:23;94638.47;;;8.82;nan
9277;BME280;4676;42.678;23.244;2024-02-16T10:56:54;94633.56;;;9.10;nan
9277;BME280;4676;42.678;23.244;2024-02-16T10:59:21;94608.63;;;8.96;nan
9277;BME280;4676;42.678;23.244;2024-02-16T11:01:59;94632.25;;;9.27;nan
9277;BME280;4676;42.678;23.244;2024-02-16T11:04:36;94634.53;;;9.36;nan
9277;BME280;4676;42.678;23.244;2024-02-16T11:07:10;94627.28;;;9.55;nan
9277;BME280;4676;42.678;23.244;2024-02-16T11:09:39;94632.00;;;9.67;nan
9277;BME280;4676;42.678;23.244;2024-02-16T11:12:08;94633.53;;;9.42;nan
9277;BME280;4676;42.678;23.244;2024-02-16T11:14:38;94628.59;;;9.37;nan
9277;BME280;4676;42.678;23.244;2024-02-16T11:17:08;94625.34;;;9.32;nan
9277;BME280;4676;42.678;23.244;2024-02-16T11:19:36;94614.88;;;9.46;nan
9277;BME280;4676;42.678;23.244;2024-02-16T11:22:03;94622.72;;;9.37;nan
9277;BME280;4676;42.678;23.244;2024-02-16T11:24:33;94597.69;;;9.28;nan
9277;BME280;4676;42.678;23.244;2024-02-16T11:27:01;94622.47;;;9.46;nan
9277;BME280;4676;42.678;23.244;2024-02-16T11:29:32;94616.00;;;9.65;nan
9277;BME280;4676;42.678;23.244;2024-02-16T11:32:00;94612.38;;;9.44;nan
9277;BME280;4676;42.678;23.244;2024-02-16T11:34:28;94606.94;;;9.58;nan
9277;BME280;4676;42.678;23.244;2024-02-16T11:36:55;94605.34;;;9.56;nan
9277;BME280;4676;42.678;23.244;2024-02-16T11:39:22;94578.63;;;9.45;nan
9277;BME280;4676;42.678;23.244;2024-02-16T11:41:59;94594.59;;;9.77;nan
9277;BME280;4676;42.678;23.244;2024-02-16T11:44:27;94594.84;;;9.97;nan
9277;BME280;4676;42.678;23.244;2024-02-16T11:46:55;94603.25;;;9.99;nan
9277;BME280;4676;42.678;23.244;2024-02-16T11:49:22;94599.44;;;9.84;nan
9277;BME280;4676;42.678;23.244;2024-02-16T11:51:48;94595.81;;;9.93;nan
9277;BME280;4676;42.678;23.244;2024-02-16T11:54:15;94591.06;;;10.10;nan
9277;BME280;4676;42.678;23.244;2024-02-16T11:56:43;94590.94;;;10.16;nan
9277;BME280;4676;42.678;23.244;2024-02-16T11:59:12;94597.63;;;10.17;nan
9277;BME280;4676;42.678;23.244;2024-02-16T12:01:48;94554.97;;;10.03;nan
9277;BME280;4676;42.678;23.244;2024-02-16T12:04:21;94577.00;;;10.29;nan
9277;BME280;4676;42.678;23.244;2024-02-16T12:06:50;94549.59;;;10.14;nan
9277;BME280;4676;42.678;23.244;2024-02-16T12:09:18;94579.34;;;10.35;nan
9277;BME280;4676;42.678;23.244;2024-02-16T12:11:45;94578.69;;;10.29;nan
9277;BME280;4676;42.678;23.244;2024-02-16T12:14:11;94578.84;;;10.24;nan
9277;BME280;4676;42.678;23.244;2024-02-16T12:16:38;94574.34;;;10.34;nan
9277;BME280;4676;42.678;23.244;2024-02-16T12:19:05;94578.91;;;10.49;nan
9277;BME280;4676;42.678;23.244;2024-02-16T12:21:33;94582.50;;;10.42;nan
9277;BME280;4676;42.678;23.244;2024-02-16T12:24:00;94572.56;;;10.36;nan
9277;BME280;4676;42.678;23.244;2024-02-16T12:26:27;94573.44;;;10.35;nan
9277;BME280;4676;42.678;23.244;2024-02-16T12:28:54;94570.88;;;10.36;nan
9277;BME280;4676;42.678;23.244;2024-02-16T12:31:21;94553.47;;;10.26;nan
9277;BME280;4676;42.678;23.244;2024-02-16T12:33:48;94568.81;;;10.47;nan
9277;BME280;4676;42.678;23.244;2024-02-16T12:36:14;94570.13;;;10.59;nan
9277;BME280;4676;42.678;23.244;2024-02-16T12:38:43;94572.38;;;10.68;nan
9277;BME280;4676;42.678;23.244;2024-02-16T12:41:10;94563.69;;;10.75;nan
9277;BME280;4676;42.678;23.244;2024-02-16T12:43:40;94559.81;;;10.90;nan
9277;BME280;4676;42.678;23.244;2024-02-16T12:46:07;94563.81;;;10.71;nan
9277;BME280;4676;42.678;23.244;2024-02-16T12:48:33;94554.88;;;10.61;nan
9277;BME280;4676;42.678;23.244;2024-02-16T12:51:00;94556.50;;;10.37;nan
9277;BME280;4676;42.678;23.244;2024-02-16T12:53:27;94565.66;;;10.41;nan
9277;BME280;4676;42.678;23.244;2024-02-16T12:55:57;94559.56;;;10.46;nan
9277;BME280;4676;42.678;23.244;2024-02-16T12:58:24;94557.16;;;10.42;nan
9277;BME280;4676;42.678;23.244;2024-02-16T13:00:52;94559.75;;;10.40;nan
9277;BME280;4676;42.678;23.244;2024-02-16T13:03:19;94543.97;;;10.32;nan
9277;BME280;4676;42.678;23.244;2024-02-16T13:05:46;94561.50;;;10.38;nan
9277;BME280;4676;42.678;23.244;2024-02-16T13:08:13;94555.34;;;10.45;nan
9277;BME280;4676;42.678;23.244;2024-02-16T13:10:40;94557.84;;;10.47;nan
9277;BME280;4676;42.678;23.244;2024-02-16T13:13:09;94553.78;;;10.41;nan
9277;BME280;4676;42.678;23.244;2024-02-16T13:15:35;94560.53;;;10.42;nan
9277;BME280;4676;42.678;23.244;2024-02-16T13:18:02;94557.75;;;10.50;nan
9277;BME280;4676;42.678;23.244;2024-02-16T13:20:29;94547.59;;;10.51;nan
9277;BME280;4676;42.678;23.244;2024-02-16T13:22:56;94561.06;;;10.52;nan
9277;BME280;4676;42.678;23.244;2024-02-16T13:25:22;94558.63;;;10.49;nan
9277;BME280;4676;42.678;23.244;2024-02-16T13:27:49;94551.72;;;10.54;nan
9277;BME280;4676;42.678;23.244;2024-02-16T13:30:17;94545.59;;;10.60;nan
9277;BME280;4676;42.678;23.244;2024-02-16T13:32:44;94547.38;;;10.58;nan
9277;BME280;4676;42.678;23.244;2024-02-16T13:35:11;94545.50;;;10.63;nan
9277;BME280;4676;42.678;23.244;2024-02-16T13:37:39;94543.03;;;10.61;nan
9277;BME280;4676;42.678;23.244;2024-02-16T13:40:07;94548.13;;;10.60;nan
9277;BME280;4676;42.678;23.244;2024-02-16T13:42:38;94550.88;;;10.53;nan